Time;durP1;ratioP1;P1;durP2;ratioP2;P2;SDS_P1;SDS_P2;PMS_P1;PMS_P2;Temp;Humidity;BMP_temperature;BMP_pressure;BME280_temperature;BME280_humidity;BME280_pressure;Samples;Min_cycle;Max_cycle;Signal;HPM_P1;HPM_P2
2022/05/06 00:01:39;;;;;;;;;;;;;;;;;;4904111;28;136528;-68
2022/05/06 00:04:06;;;;;;;;;;;;;;;;;;4909842;28;130656;-68
2022/05/06 00:06:32;;;;;;;;;;;;;;;;;;4927344;28;126709;-68
2022/05/06 00:08:58;;;;;;;;;;;;;;;;;;4921422;28;136781;-68
2022/05/06 00:11:25;;;;;;;;;;;;;;;;;;4923790;28;138055;-68
2022/05/06 00:13:52;;;;;;;;;;;;;;;;;;4930576;28;128540;-68
2022/05/06 00:16:18;;;;;;;;;;;;;;;;;;4924658;28;136531;-68
2022/05/06 00:18:45;;;;;;;;;;;;;;;;;;4927534;28;124397;-68
2022/05/06 00:21:11;;;;;;;;;;;;;;;;;;4924626;28;135669;-68
2022/05/06 00:23:37;;;;;;;;;;;;;;;;;;4922745;28;114997;-68
2022/05/06 00:26:04;;;;;;;;;;;;;;;;;;4920373;28;119624;-67
2022/05/06 00:28:30;;;;;;;;;;;;;;;;;;4911432;28;134723;-67
2022/05/06 00:30:56;;;;;;;;;;;;;;;;;;4908310;28;138414;-68
2022/05/06 00:33:26;;;;;;;;;;;;;;;;;;4906220;28;127908;-67
2022/05/06 00:35:53;;;;;;;;;;;;;;;;;;4923694;28;136072;-67
2022/05/06 00:38:20;;;;;;;;;;;;;;;;;;4924821;28;105625;-67
2022/05/06 00:40:46;;;;;;;;;;;;;;;;;;4931391;28;106216;-69
2022/05/06 00:43:12;;;;;;;;;;;;;;;;;;4927413;28;134366;-66
2022/05/06 00:45:38;;;;;;;;;;;;;;;;;;4925020;28;129589;-67
2022/05/06 00:48:05;;;;;;;;;;;;;;;;;;4938473;28;135837;-67
2022/05/06 00:50:32;;;;;;;;;;;;;;;;;;4931593;28;115143;-66
2022/05/06 00:52:59;;;;;;;;;;;;;;;;;;4929115;28;129527;-66
2022/05/06 00:55:25;;;;;;;;;;;;;;;;;;4899987;28;135985;-67
2022/05/06 00:57:51;;;;;;;;;;;;;;;;;;4928610;28;106504;-67
2022/05/06 01:00:18;;;;;;;;;;;;;;;;;;4926510;28;135420;-67
2022/05/06 01:02:44;;;;;;;;;;;;;;;;;;4927636;28;107340;-67
2022/05/06 01:05:10;;;;;;;;;;;;;;;;;;4933824;28;106911;-67
2022/05/06 01:07:37;;;;;;;;;;;;;;;;;;4934320;28;125683;-67
2022/05/06 01:10:04;;;;;;;;;;;;;;;;;;4924896;23;136242;-67
2022/05/06 01:12:30;;;;;;;;;;;;;;;;;;4928553;28;106764;-67
2022/05/06 01:14:57;;;;;;;;;;;;;;;;;;4931382;28;107508;-67
2022/05/06 01:17:35;;;;;;;;;;;;;;;;;;4960859;28;108682;-67
2022/05/06 01:20:01;;;;;;;;;;;;;;;;;;4927965;28;136017;-67
2022/05/06 01:22:28;;;;;;;;;;;;;;;;;;4940081;28;108737;-67
2022/05/06 01:24:55;;;;;;;;;;;;;;;;;;4930957;28;128437;-67
2022/05/06 01:27:22;;;;;;;;;;;;;;;;;;4939882;28;137003;-68
2022/05/06 01:29:48;;;;;;;;;;;;;;;;;;4925128;28;137064;-67
2022/05/06 01:32:15;;;;;;;;;;;;;;;;;;4928627;28;110282;-67
2022/05/06 01:34:41;;;;;;;;;;;;;;;;;;4923120;28;134885;-67
2022/05/06 01:37:16;;;;;;;;;;;;;;;;;;4929304;28;107211;-67
2022/05/06 01:39:42;;;;;;;;;;;;;;;;;;4934178;28;112241;-67
2022/05/06 01:42:09;;;;;;;;;;;;;;;;;;4936585;28;108961;-67
2022/05/06 01:44:39;;;;;;;;;;;;;;;;;;4927118;28;107139;-70
2022/05/06 01:47:06;;;;;;;;;;;;;;;;;;4920854;28;108448;-67
2022/05/06 01:49:35;;;;;;;;;;;;;;;;;;4927631;28;108178;-67
2022/05/06 01:52:02;;;;;;;;;;;;;;;;;;4929001;28;106538;-66
2022/05/06 01:54:28;;;;;;;;;;;;;;;;;;4928851;28;108224;-66
2022/05/06 01:56:55;;;;;;;;;;;;;;;;;;4934545;28;108872;-67
2022/05/06 01:59:23;;;;;;;;;;;;;;;;;;4919201;28;105661;-66
2022/05/06 02:01:55;;;;;;;;;;;;;;;;;;4948489;28;107644;-68
2022/05/06 02:07:11;;;;;;;;;;;;;;;;;;4943042;28;108046;-67
2022/05/06 02:09:39;;;;;;;;;;;;;;;;;;4930977;28;108540;-67
2022/05/06 02:12:10;;;;;;;;;;;;;;;;;;4938832;28;106403;-67
2022/05/06 02:14:53;;;;;;;;;;;;;;;;;;4943310;28;105683;-68
2022/05/06 02:17:29;;;;;;;;;;;;;;;;;;4969573;28;109427;-67
2022/05/06 02:20:22;;;;;;;;;;;;;;;;;;4943566;28;106770;-68
2022/05/06 02:23:09;;;;;;;;;;;;;;;;;;4933347;28;107283;-68
2022/05/06 02:25:43;;;;;;;;;;;;;;;;;;4944790;28;108727;-67
2022/05/06 02:28:14;;;;;;;;;;;;;;;;;;4942935;28;108869;-68
2022/05/06 02:33:33;;;;;;;;;;;;;;;;;;4937151;28;106978;-68
2022/05/06 02:36:15;;;;;;;;;;;;;;;;;;4939473;28;107989;-68
2022/05/06 02:38:41;;;;;;;;;;;;;;;;;;4945733;28;126126;-68
2022/05/06 02:41:08;;;;;;;;;;;;;;;;;;4938156;28;128505;-67
2022/05/06 02:43:43;;;;;;;;;;;;;;;;;;4931108;28;108008;-68
2022/05/06 02:46:10;;;;;;;;;;;;;;;;;;4925495;28;108922;-68
2022/05/06 02:48:36;;;;;;;;;;;;;;;;;;4943389;28;129953;-68
2022/05/06 02:51:05;;;;;;;;;;;;;;;;;;4942163;28;108778;-68
2022/05/06 02:53:32;;;;;;;;;;;;;;;;;;4931187;28;106238;-68
2022/05/06 02:55:59;;;;;;;;;;;;;;;;;;4927895;28;108643;-68
2022/05/06 02:58:28;;;;;;;;;;;;;;;;;;4940747;28;107480;-67
2022/05/06 03:00:54;;;;;;;;;;;;;;;;;;4926268;28;108460;-67
2022/05/06 03:03:20;;;;;;;;;;;;;;;;;;4933629;28;105994;-68
2022/05/06 03:05:47;;;;;;;;;;;;;;;;;;4926031;28;108699;-67
2022/05/06 03:08:16;;;;;;;;;;;;;;;;;;4937221;28;105985;-67
2022/05/06 03:10:43;;;;;;;;;;;;;;;;;;4936398;28;108893;-68
2022/05/06 03:13:09;;;;;;;;;;;;;;;;;;4956635;28;110226;-67
2022/05/06 03:15:36;;;;;;;;;;;;;;;;;;4929575;28;107319;-68
2022/05/06 03:18:09;;;;;;;;;;;;;;;;;;4952529;28;108856;-68
2022/05/06 03:20:38;;;;;;;;;;;;;;;;;;4927438;28;106404;-68
2022/05/06 03:23:04;;;;;;;;;;;;;;;;;;4932767;28;138308;-68
2022/05/06 03:25:30;;;;;;;;;;;;;;;;;;4927379;28;120968;-67
2022/05/06 03:28:02;;;;;;;;;;;;;;;;;;4927606;28;130575;-68
2022/05/06 03:30:28;;;;;;;;;;;;;;;;;;4955266;28;135520;-67
2022/05/06 03:33:08;;;;;;;;;;;;;;;;;;4925853;28;107068;-67
2022/05/06 03:35:36;;;;;;;;;;;;;;;;;;4927580;28;109229;-67
2022/05/06 03:38:03;;;;;;;;;;;;;;;;;;4965612;28;108612;-67
2022/05/06 03:40:29;;;;;;;;;;;;;;;;;;4938501;28;106348;-68
2022/05/06 03:42:59;;;;;;;;;;;;;;;;;;4958382;28;107363;-67
2022/05/06 03:45:25;;;;;;;;;;;;;;;;;;4926872;28;109032;-67
2022/05/06 03:47:52;;;;;;;;;;;;;;;;;;4925068;28;106621;-67
2022/05/06 03:53:03;;;;;;;;;;;;;;;;;;4956688;28;136700;-65
2022/05/06 03:55:30;;;;;;;;;;;;;;;;;;4926588;28;108379;-67
2022/05/06 03:57:56;;;;;;;;;;;;;;;;;;4957593;28;108473;-67
2022/05/06 04:00:26;;;;;;;;;;;;;;;;;;4970070;28;106358;-67
2022/05/06 04:02:59;;;;;;;;;;;;;;;;;;4929665;28;106816;-68
2022/05/06 04:05:33;;;;;;;;;;;;;;;;;;4929145;28;119778;-66
2022/05/06 04:08:00;;;;;;;;;;;;;;;;;;4923139;28;106000;-67
2022/05/06 04:10:27;;;;;;;;;;;;;;;;;;4963391;28;108038;-67
2022/05/06 04:12:54;;;;;;;;;;;;;;;;;;4925446;28;108858;-67
2022/05/06 04:15:21;;;;;;;;;;;;;;;;;;4932183;28;106390;-67
2022/05/06 04:17:48;;;;;;;;;;;;;;;;;;4930378;28;108606;-67
2022/05/06 04:25:49;;;;;;;;;;;;;;;;;;4948629;28;129075;-67
2022/05/06 04:28:18;;;;;;;;;;;;;;;;;;4961119;28;106316;-68
2022/05/06 04:30:47;;;;;;;;;;;;;;;;;;4922884;28;107882;-67
2022/05/06 04:33:15;;;;;;;;;;;;;;;;;;4966091;28;108591;-67
2022/05/06 04:35:44;;;;;;;;;;;;;;;;;;4953912;28;106265;-67
2022/05/06 04:38:12;;;;;;;;;;;;;;;;;;4932134;28;108330;-66
2022/05/06 04:40:40;;;;;;;;;;;;;;;;;;4916452;28;106673;-67
2022/05/06 04:43:06;;;;;;;;;;;;;;;;;;4925875;28;112340;-67
2022/05/06 04:45:36;;;;;;;;;;;;;;;;;;4961993;28;109279;-66
2022/05/06 04:48:05;;;;;;;;;;;;;;;;;;4939031;28;105794;-66
2022/05/06 04:50:32;;;;;;;;;;;;;;;;;;4928325;28;106845;-66
2022/05/06 04:52:59;;;;;;;;;;;;;;;;;;4931170;28;108849;-67
2022/05/06 04:55:25;;;;;;;;;;;;;;;;;;4927663;28;129734;-67
2022/05/06 04:57:52;;;;;;;;;;;;;;;;;;4964805;28;137804;-67
2022/05/06 05:00:18;;;;;;;;;;;;;;;;;;4923847;28;109120;-67
2022/05/06 05:02:46;;;;;;;;;;;;;;;;;;4929654;28;108571;-67
2022/05/06 05:05:12;;;;;;;;;;;;;;;;;;4925768;28;138579;-67
2022/05/06 05:07:40;;;;;;;;;;;;;;;;;;4929863;28;106256;-67
2022/05/06 05:10:09;;;;;;;;;;;;;;;;;;4970926;28;108291;-66
2022/05/06 05:12:36;;;;;;;;;;;;;;;;;;4951984;28;106568;-68
2022/05/06 05:15:02;;;;;;;;;;;;;;;;;;4948757;28;106028;-69
2022/05/06 05:17:30;;;;;;;;;;;;;;;;;;4961307;28;108206;-68
2022/05/06 05:19:57;;;;;;;;;;;;;;;;;;4964762;28;107449;-68
2022/05/06 05:22:26;;;;;;;;;;;;;;;;;;4952070;28;108080;-67
2022/05/06 05:24:53;;;;;;;;;;;;;;;;;;4944489;28;108536;-66
2022/05/06 05:27:19;;;;;;;;;;;;;;;;;;4946919;28;131786;-67
2022/05/06 05:29:46;;;;;;;;;;;;;;;;;;4963223;28;108077;-67
2022/05/06 05:32:15;;;;;;;;;;;;;;;;;;4953824;28;108377;-67
2022/05/06 05:34:43;;;;;;;;;;;;;;;;;;4949177;28;106520;-66
2022/05/06 05:37:13;;;;;;;;;;;;;;;;;;4960301;28;108372;-66
2022/05/06 05:39:39;;;;;;;;;;;;;;;;;;4946032;28;138391;-67
2022/05/06 05:42:07;;;;;;;;;;;;;;;;;;4941592;28;106334;-66
2022/05/06 05:50:05;;;;;;;;;;;;;;;;;;4965637;28;137582;-67
2022/05/06 05:52:32;;;;;;;;;;;;;;;;;;4979937;28;108631;-67
2022/05/06 05:54:58;;;;;;;;;;;;;;;;;;4946854;28;116222;-67
2022/05/06 05:57:25;;;;;;;;;;;;;;;;;;4980603;28;108055;-67
2022/05/06 05:59:51;;;;;;;;;;;;;;;;;;4945664;28;108719;-70
2022/05/06 06:02:19;;;;;;;;;;;;;;;;;;4957251;28;105912;-67
2022/05/06 06:04:49;;;;;;;;;;;;;;;;;;4950984;28;108198;-66
2022/05/06 06:07:15;;;;;;;;;;;;;;;;;;4969097;28;108048;-66
2022/05/06 06:09:48;;;;;;;;;;;;;;;;;;4971845;28;108363;-67
2022/05/06 06:12:14;;;;;;;;;;;;;;;;;;4947378;28;139847;-67
2022/05/06 06:14:41;;;;;;;;;;;;;;;;;;4948538;28;106642;-67
2022/05/06 06:17:08;;;;;;;;;;;;;;;;;;4963490;28;109422;-67
2022/05/06 06:19:35;;;;;;;;;;;;;;;;;;4948398;28;109802;-66
2022/05/06 06:22:02;;;;;;;;;;;;;;;;;;4966595;28;106118;-66
2022/05/06 06:24:42;;;;;;;;;;;;;;;;;;4959980;28;109188;-66
2022/05/06 06:27:09;;;;;;;;;;;;;;;;;;4972023;28;108983;-67
2022/05/06 06:29:35;;;;;;;;;;;;;;;;;;4963639;28;137746;-67
2022/05/06 06:32:02;;;;;;;;;;;;;;;;;;4961933;28;109158;-66
2022/05/06 06:34:29;;;;;;;;;;;;;;;;;;4948852;28;106065;-66
2022/05/06 06:36:55;;;;;;;;;;;;;;;;;;4945578;28;135307;-66
2022/05/06 06:39:22;;;;;;;;;;;;;;;;;;4964388;28;109833;-67
2022/05/06 06:41:49;;;;;;;;;;;;;;;;;;4946608;28;106239;-67
2022/05/06 06:44:19;;;;;;;;;;;;;;;;;;4971581;28;108564;-67
2022/05/06 06:47:04;;;;;;;;;;;;;;;;;;4948585;28;106247;-65
2022/05/06 06:49:47;;;;;;;;;;;;;;;;;;4951009;28;106211;-65
2022/05/06 06:52:42;;;;;;;;;;;;;;;;;;4960278;28;107236;-66
2022/05/06 06:55:08;;;;;;;;;;;;;;;;;;4940806;28;121718;-67
2022/05/06 06:57:35;;;;;;;;;;;;;;;;;;4940581;28;135253;-67
2022/05/06 07:00:01;;;;;;;;;;;;;;;;;;4944769;28;125967;-67
2022/05/06 07:02:28;;;;;;;;;;;;;;;;;;4938165;28;129231;-73
2022/05/06 07:04:54;;;;;;;;;;;;;;;;;;4938238;28;137287;-66
2022/05/06 07:12:51;;;;;;;;;;;;;;;;;;4964551;28;133202;-65
2022/05/06 07:15:17;;;;;;;;;;;;;;;;;;4969418;28;112312;-64
2022/05/06 07:17:45;;;;;;;;;;;;;;;;;;4971687;28;135223;-64
2022/05/06 07:20:11;;;;;;;;;;;;;;;;;;4951720;28;135619;-65
2022/05/06 07:22:37;;;;;;;;;;;;;;;;;;4969189;28;130228;-65
2022/05/06 07:25:04;;;;;;;;;;;;;;;;;;4970795;28;134842;-65
2022/05/06 07:27:30;;;;;;;;;;;;;;;;;;4963314;28;137548;-65
2022/05/06 07:29:56;;;;;;;;;;;;;;;;;;4964949;28;130871;-66
2022/05/06 07:32:23;;;;;;;;;;;;;;;;;;4959174;28;136427;-65
2022/05/06 07:34:49;;;;;;;;;;;;;;;;;;4960368;28;128411;-65
2022/05/06 07:37:16;;;;;;;;;;;;;;;;;;4962363;28;118597;-66
2022/05/06 07:39:43;;;;;;;;;;;;;;;;;;4973109;28;134463;-67
2022/05/06 07:42:11;;;;;;;;;;;;;;;;;;4964186;28;106123;-66
2022/05/06 07:44:37;;;;;;;;;;;;;;;;;;4968062;28;136623;-66
2022/05/06 07:47:04;;;;;;;;;;;;;;;;;;4969223;28;134396;-66
2022/05/06 07:49:30;;;;;;;;;;;;;;;;;;4978884;28;119979;-66
2022/05/06 07:51:56;;;;;;;;;;;;;;;;;;4957041;28;137663;-66
2022/05/06 07:54:22;;;;;;;;;;;;;;;;;;4971260;28;138589;-66
2022/05/06 07:56:49;;;;;;;;;;;;;;;;;;4955979;28;122002;-66
2022/05/06 07:59:15;;;;;;;;;;;;;;;;;;4964367;28;135815;-67
2022/05/06 08:04:33;;;;;;;;;;;;;;;;;;4954488;28;134583;-66
2022/05/06 08:06:59;;;;;;;;;;;;;;;;;;4961080;28;137054;-66
2022/05/06 08:09:25;;;;;;;;;;;;;;;;;;4964466;28;130029;-66
2022/05/06 08:11:52;;;;;;;;;;;;;;;;;;4958995;28;136425;-70
2022/05/06 08:14:18;;;;;;;;;;;;;;;;;;4968560;28;137996;-69
2022/05/06 08:16:44;;;;;;;;;;;;;;;;;;4956680;28;129869;-66
2022/05/06 08:19:11;;;;;;;;;;;;;;;;;;4951151;28;119590;-66
2022/05/06 08:21:37;;;;;;;;;;;;;;;;;;4957341;28;128024;-66
2022/05/06 08:24:03;;;;;;;;;;;;;;;;;;4965122;28;135467;-65
2022/05/06 08:26:30;;;;;;;;;;;;;;;;;;4965621;28;136494;-65
2022/05/06 08:28:56;;;;;;;;;;;;;;;;;;4957205;28;118290;-66
2022/05/06 08:31:22;;;;;;;;;;;;;;;;;;4964692;28;117058;-66
2022/05/06 08:33:49;;;;;;;;;;;;;;;;;;4958057;28;136494;-66
2022/05/06 08:36:15;;;;;;;;;;;;;;;;;;4958036;28;129582;-68
2022/05/06 08:38:44;;;;;;;;;;;;;;;;;;4961396;28;135767;-67
2022/05/06 08:41:11;;;;;;;;;;;;;;;;;;4959918;28;128099;-67
2022/05/06 08:51:42;;;;;;;;;;;;;;;;;;4914945;27;135547;-66
2022/05/06 08:54:09;;;;;;;;;;;;;;;;;;4923854;27;117187;-65
2022/05/06 08:56:35;;;;;;;;;;;;;;;;;;4932179;27;135121;-66
2022/05/06 08:59:01;;;;;;;;;;;;;;;;;;4916538;27;135708;-66
2022/05/06 09:01:27;;;;;;;;;;;;;;;;;;4921269;28;106402;-67
2022/05/06 09:03:55;;;;;;;;;;;;;;;;;;4929120;27;134966;-66
2022/05/06 09:06:22;;;;;;;;;;;;;;;;;;4929235;27;136953;-67
2022/05/06 09:08:48;;;;;;;;;;;;;;;;;;4938138;27;120610;-66
2022/05/06 09:11:14;;;;;;;;;;;;;;;;;;4916526;27;135624;-66
2022/05/06 09:13:41;;;;;;;;;;;;;;;;;;4925974;28;116055;-66
2022/05/06 09:18:53;;;;;;;;;;;;;;;;;;4920019;27;135354;-67
2022/05/06 09:21:20;;;;;;;;;;;;;;;;;;4912174;28;117833;-67
2022/05/06 09:23:46;;;;;;;;;;;;;;;;;;4932179;27;137080;-66
2022/05/06 09:26:18;;;;;;;;;;;;;;;;;;4934046;27;135713;-67
2022/05/06 09:28:44;;;;;;;;;;;;;;;;;;4920434;28;118041;-66
2022/05/06 09:31:10;;;;;;;;;;;;;;;;;;4917271;27;138017;-67
2022/05/06 09:33:37;;;;;;;;;;;;;;;;;;4931207;27;115920;-67
2022/05/06 09:36:03;;;;;;;;;;;;;;;;;;4921150;27;136390;-67
2022/05/06 09:38:29;;;;;;;;;;;;;;;;;;4916641;27;107342;-67
2022/05/06 09:40:57;;;;;;;;;;;;;;;;;;4923122;27;106171;-67
2022/05/06 09:43:23;;;;;;;;;;;;;;;;;;4913608;27;135909;-67
2022/05/06 09:45:49;;;;;;;;;;;;;;;;;;4915297;27;125731;-67
2022/05/06 09:48:16;;;;;;;;;;;;;;;;;;4953268;27;118784;-69
2022/05/06 09:50:42;;;;;;;;;;;;;;;;;;4923228;27;107633;-67
2022/05/06 09:53:14;;;;;;;;;;;;;;;;;;4923606;28;137099;-67
2022/05/06 09:55:41;;;;;;;;;;;;;;;;;;4912656;27;137667;-67
2022/05/06 09:58:08;;;;;;;;;;;;;;;;;;4920850;27;113400;-68
2022/05/06 10:00:34;;;;;;;;;;;;;;;;;;4905737;28;117366;-67
2022/05/06 10:03:03;;;;;;;;;;;;;;;;;;4897741;28;136338;-67
2022/05/06 10:05:30;;;;;;;;;;;;;;;;;;4907032;28;136900;-67
2022/05/06 10:07:56;;;;;;;;;;;;;;;;;;4911698;28;106283;-68
2022/05/06 10:10:23;;;;;;;;;;;;;;;;;;4902714;28;136672;-66
2022/05/06 10:12:52;;;;;;;;;;;;;;;;;;4906944;28;137201;-68
2022/05/06 10:15:18;;;;;;;;;;;;;;;;;;4904810;27;117357;-67
2022/05/06 10:17:45;;;;;;;;;;;;;;;;;;4909990;28;137686;-68
2022/05/06 10:20:11;;;;;;;;;;;;;;;;;;4895528;28;115917;-67
2022/05/06 10:22:37;;;;;;;;;;;;;;;;;;4910696;28;136707;-68
2022/05/06 10:25:04;;;;;;;;;;;;;;;;;;4906196;28;137067;-65
2022/05/06 10:33:01;;;;;;;;;;;;;;;;;;4932091;27;137169;-68
2022/05/06 10:35:27;;;;;;;;;;;;;;;;;;4900410;28;115879;-67
2022/05/06 10:37:54;;;;;;;;;;;;;;;;;;4915305;28;135284;-67
2022/05/06 10:40:20;;;;;;;;;;;;;;;;;;4923149;28;117139;-68
2022/05/06 10:42:46;;;;;;;;;;;;;;;;;;4906496;28;108600;-67
2022/05/06 10:45:13;;;;;;;;;;;;;;;;;;4913954;27;137268;-66
2022/05/06 10:47:40;;;;;;;;;;;;;;;;;;4910667;28;118377;-67
2022/05/06 10:50:06;;;;;;;;;;;;;;;;;;4893772;28;135109;-67
2022/05/06 10:52:33;;;;;;;;;;;;;;;;;;4909441;28;111220;-66
2022/05/06 10:55:03;;;;;;;;;;;;;;;;;;4930765;28;117263;-66
2022/05/06 10:57:29;;;;;;;;;;;;;;;;;;4928183;28;135882;-67
2022/05/06 10:59:56;;;;;;;;;;;;;;;;;;4908098;28;106882;-66
2022/05/06 11:02:22;;;;;;;;;;;;;;;;;;4900841;28;136578;-67
2022/05/06 11:04:54;;;;;;;;;;;;;;;;;;4905301;28;135892;-67
2022/05/06 11:07:20;;;;;;;;;;;;;;;;;;4938710;28;116545;-66
2022/05/06 11:09:47;;;;;;;;;;;;;;;;;;4898312;28;126180;-66
2022/05/06 11:12:15;;;;;;;;;;;;;;;;;;4904242;28;131988;-67
2022/05/06 11:14:41;;;;;;;;;;;;;;;;;;4905451;28;113430;-67
2022/05/06 11:17:08;;;;;;;;;;;;;;;;;;4910540;28;107358;-67
2022/05/06 11:19:34;;;;;;;;;;;;;;;;;;4911698;28;137619;-66
2022/05/06 11:22:00;;;;;;;;;;;;;;;;;;4907180;28;135321;-66
2022/05/06 11:24:27;;;;;;;;;;;;;;;;;;4907494;28;129852;-66
2022/05/06 11:26:53;;;;;;;;;;;;;;;;;;4907600;28;106306;-67
2022/05/06 11:29:19;;;;;;;;;;;;;;;;;;4912607;28;136071;-66
2022/05/06 11:31:46;;;;;;;;;;;;;;;;;;4894816;28;138794;-67
2022/05/06 11:34:15;;;;;;;;;;;;;;;;;;4894329;28;107864;-67
2022/05/06 11:36:41;;;;;;;;;;;;;;;;;;4892111;28;137209;-67
2022/05/06 11:39:07;;;;;;;;;;;;;;;;;;4909250;28;138117;-67
2022/05/06 11:41:34;;;;;;;;;;;;;;;;;;4905992;28;107281;-66
2022/05/06 11:44:00;;;;;;;;;;;;;;;;;;4903304;28;136022;-66
2022/05/06 11:49:12;;;;;;;;;;;;;;;;;;4902623;28;134838;-67
2022/05/06 11:51:38;;;;;;;;;;;;;;;;;;4904028;28;108033;-66
2022/05/06 11:54:05;;;;;;;;;;;;;;;;;;4907113;28;111153;-67
2022/05/06 11:56:35;;;;;;;;;;;;;;;;;;4898606;28;131413;-68
2022/05/06 11:59:01;;;;;;;;;;;;;;;;;;4901081;28;136014;-66
2022/05/06 12:01:28;;;;;;;;;;;;;;;;;;4897463;28;116964;-67
2022/05/06 12:03:54;;;;;;;;;;;;;;;;;;4912396;28;106319;-69
2022/05/06 12:06:37;;;;;;;;;;;;;;;;;;4903557;28;117266;-65
2022/05/06 12:09:03;;;;;;;;;;;;;;;;;;4904653;28;136205;-65
2022/05/06 12:11:29;;;;;;;;;;;;;;;;;;4906054;28;138857;-64
2022/05/06 12:13:56;;;;;;;;;;;;;;;;;;4897530;28;107415;-65
2022/05/06 12:16:22;;;;;;;;;;;;;;;;;;4899198;28;136854;-65
2022/05/06 12:18:49;;;;;;;;;;;;;;;;;;4904095;28;137428;-65
2022/05/06 12:21:15;;;;;;;;;;;;;;;;;;4900417;28;111601;-64
2022/05/06 12:23:41;;;;;;;;;;;;;;;;;;4905805;28;127519;-65
2022/05/06 12:26:08;;;;;;;;;;;;;;;;;;4901478;28;124752;-64
2022/05/06 12:28:34;;;;;;;;;;;;;;;;;;4896305;27;136276;-65
2022/05/06 12:31:02;;;;;;;;;;;;;;;;;;4904746;28;136706;-65
2022/05/06 12:33:28;;;;;;;;;;;;;;;;;;4897560;28;107499;-64
2022/05/06 12:35:55;;;;;;;;;;;;;;;;;;4905010;28;137117;-64
2022/05/06 12:38:21;;;;;;;;;;;;;;;;;;4898028;28;133776;-65
2022/05/06 12:40:48;;;;;;;;;;;;;;;;;;4903921;28;117901;-64
2022/05/06 12:43:15;;;;;;;;;;;;;;;;;;4891073;28;119009;-66
2022/05/06 12:45:41;;;;;;;;;;;;;;;;;;4898088;28;136430;-65
2022/05/06 12:50:52;;;;;;;;;;;;;;;;;;4905936;28;109111;-64
2022/05/06 12:53:19;;;;;;;;;;;;;;;;;;4894100;28;117008;-65
2022/05/06 12:55:46;;;;;;;;;;;;;;;;;;4899075;28;137090;-64
2022/05/06 12:58:12;;;;;;;;;;;;;;;;;;4902034;28;137939;-66
2022/05/06 13:00:39;;;;;;;;;;;;;;;;;;4905827;28;117802;-67
2022/05/06 13:03:05;;;;;;;;;;;;;;;;;;4899112;28;132714;-66
2022/05/06 13:05:32;;;;;;;;;;;;;;;;;;4894758;28;137312;-65
2022/05/06 13:08:00;;;;;;;;;;;;;;;;;;4906241;28;118717;-65
2022/05/06 13:10:27;;;;;;;;;;;;;;;;;;4899578;28;136468;-65
2022/05/06 13:12:53;;;;;;;;;;;;;;;;;;4895486;28;119382;-65
2022/05/06 13:15:19;;;;;;;;;;;;;;;;;;4894754;28;131867;-65
2022/05/06 13:17:46;;;;;;;;;;;;;;;;;;4899355;28;136100;-65
2022/05/06 13:20:12;;;;;;;;;;;;;;;;;;4894123;28;117476;-66
2022/05/06 13:22:39;;;;;;;;;;;;;;;;;;4895070;27;128185;-65
2022/05/06 13:25:05;;;;;;;;;;;;;;;;;;4897420;28;136025;-65
2022/05/06 13:27:31;;;;;;;;;;;;;;;;;;4896545;28;118238;-63
2022/05/06 13:29:58;;;;;;;;;;;;;;;;;;4893667;28;136732;-63
2022/05/06 13:32:24;;;;;;;;;;;;;;;;;;4889139;28;120419;-66
2022/05/06 13:34:51;;;;;;;;;;;;;;;;;;4891455;28;135729;-65
2022/05/06 13:37:17;;;;;;;;;;;;;;;;;;4891129;28;134917;-64
2022/05/06 13:39:43;;;;;;;;;;;;;;;;;;4899819;28;109082;-65
2022/05/06 13:42:09;;;;;;;;;;;;;;;;;;4892295;28;138012;-65
2022/05/06 13:44:36;;;;;;;;;;;;;;;;;;4889489;28;136903;-70
2022/05/06 13:47:02;;;;;;;;;;;;;;;;;;4892908;28;118549;-65
2022/05/06 13:49:28;;;;;;;;;;;;;;;;;;4897222;28;135256;-66
2022/05/06 13:51:55;;;;;;;;;;;;;;;;;;4906193;28;135438;-66
2022/05/06 13:54:21;;;;;;;;;;;;;;;;;;4900111;28;138143;-66
2022/05/06 13:59:32;;;;;;;;;;;;;;;;;;4899600;28;119601;-67
2022/05/06 14:01:58;;;;;;;;;;;;;;;;;;4891712;27;135681;-66
2022/05/06 14:04:26;;;;;;;;;;;;;;;;;;4903677;27;117021;-66
2022/05/06 14:07:12;;;;;;;;;;;;;;;;;;4911159;27;106089;-66
2022/05/06 14:09:39;;;;;;;;;;;;;;;;;;4914589;28;135610;-66
2022/05/06 14:12:05;;;;;;;;;;;;;;;;;;4917618;28;137714;-66
2022/05/06 14:14:31;;;;;;;;;;;;;;;;;;4905195;27;117120;-66
2022/05/06 14:16:58;;;;;;;;;;;;;;;;;;4908766;28;136655;-64
2022/05/06 14:19:24;;;;;;;;;;;;;;;;;;4901072;28;119124;-66
2022/05/06 14:21:50;;;;;;;;;;;;;;;;;;4906070;28;116390;-65
2022/05/06 14:24:17;;;;;;;;;;;;;;;;;;4906771;28;137918;-66
2022/05/06 14:26:44;;;;;;;;;;;;;;;;;;4909269;28;106236;-66
2022/05/06 14:29:11;;;;;;;;;;;;;;;;;;4899904;28;137050;-66
2022/05/06 14:31:37;;;;;;;;;;;;;;;;;;4907814;27;136471;-66
2022/05/06 14:34:03;;;;;;;;;;;;;;;;;;4912063;28;118093;-65
2022/05/06 14:36:29;;;;;;;;;;;;;;;;;;4909957;28;136645;-65
2022/05/06 14:38:56;;;;;;;;;;;;;;;;;;4906586;28;106553;-65
2022/05/06 14:41:22;;;;;;;;;;;;;;;;;;4914178;27;135543;-66
2022/05/06 14:43:49;;;;;;;;;;;;;;;;;;4904934;28;117895;-65
2022/05/06 14:46:15;;;;;;;;;;;;;;;;;;4907424;27;119601;-65
2022/05/06 14:48:42;;;;;;;;;;;;;;;;;;4901374;27;125481;-65
2022/05/06 14:51:08;;;;;;;;;;;;;;;;;;4896665;28;130443;-65
2022/05/06 14:53:34;;;;;;;;;;;;;;;;;;4906643;28;120033;-66
2022/05/06 14:56:01;;;;;;;;;;;;;;;;;;4906618;28;137428;-65
2022/05/06 14:58:27;;;;;;;;;;;;;;;;;;4911958;28;121870;-65
2022/05/06 15:00:53;;;;;;;;;;;;;;;;;;4904855;27;136002;-65
2022/05/06 15:03:20;;;;;;;;;;;;;;;;;;4902998;28;137120;-66
2022/05/06 15:05:46;;;;;;;;;;;;;;;;;;4908548;28;119138;-67
2022/05/06 15:08:13;;;;;;;;;;;;;;;;;;4896254;28;137189;-65
2022/05/06 15:10:39;;;;;;;;;;;;;;;;;;4908375;28;136600;-65
2022/05/06 15:13:05;;;;;;;;;;;;;;;;;;4907869;28;109839;-65
2022/05/06 15:15:31;;;;;;;;;;;;;;;;;;4904850;28;136656;-64
2022/05/06 15:19:23;;;;;;;;;;;;;;;;;;4903920;27;130517;-66
2022/05/06 15:20:44;;;;;;;;;;;;;;;;;;4905067;27;137015;-63
2022/05/06 15:23:11;;;;;;;;;;;;;;;;;;4905213;27;134908;-64
2022/05/06 15:25:38;;;;;;;;;;;;;;;;;;4907391;27;120529;-64
2022/05/06 15:28:04;;;;;;;;;;;;;;;;;;4900851;27;135833;-66
2022/05/06 15:30:31;;;;;;;;;;;;;;;;;;4901304;27;136164;-64
2022/05/06 15:32:57;;;;;;;;;;;;;;;;;;4914127;27;117772;-64
2022/05/06 15:35:23;;;;;;;;;;;;;;;;;;4904109;27;137319;-65
2022/05/06 15:37:49;;;;;;;;;;;;;;;;;;4903034;27;137796;-64
2022/05/06 15:40:16;;;;;;;;;;;;;;;;;;4911476;27;121084;-63
2022/05/06 15:42:42;;;;;;;;;;;;;;;;;;4899573;27;111910;-65
2022/05/06 15:45:08;;;;;;;;;;;;;;;;;;4903319;28;117587;-65
2022/05/06 15:47:34;;;;;;;;;;;;;;;;;;4908510;27;135777;-66
2022/05/06 15:50:02;;;;;;;;;;;;;;;;;;4904868;27;136352;-65
2022/05/06 15:52:28;;;;;;;;;;;;;;;;;;4905427;27;118745;-66
2022/05/06 15:54:55;;;;;;;;;;;;;;;;;;4911587;28;138444;-64
2022/05/06 15:57:21;;;;;;;;;;;;;;;;;;4911718;28;137340;-65
2022/05/06 15:59:48;;;;;;;;;;;;;;;;;;4909308;27;118917;-65
2022/05/06 16:02:14;;;;;;;;;;;;;;;;;;4912033;27;137898;-66
2022/05/06 16:04:40;;;;;;;;;;;;;;;;;;4909130;28;120226;-67
2022/05/06 16:07:08;;;;;;;;;;;;;;;;;;4908765;28;134570;-67
2022/05/06 16:09:34;;;;;;;;;;;;;;;;;;4910873;28;136766;-68
2022/05/06 16:12:00;;;;;;;;;;;;;;;;;;4912327;28;117672;-67
2022/05/06 16:17:17;;;;;;;;;;;;;;;;;;4899583;28;117002;-66
2022/05/06 16:19:44;;;;;;;;;;;;;;;;;;4902190;28;118316;-67
2022/05/06 16:22:10;;;;;;;;;;;;;;;;;;4914182;28;135037;-66
2022/05/06 16:24:36;;;;;;;;;;;;;;;;;;4911033;28;133854;-67
2022/05/06 16:27:02;;;;;;;;;;;;;;;;;;4914632;28;127868;-65
2022/05/06 16:29:29;;;;;;;;;;;;;;;;;;4898760;27;138898;-66
2022/05/06 16:31:55;;;;;;;;;;;;;;;;;;4904896;28;118961;-65
2022/05/06 16:37:20;;;;;;;;;;;;;;;;;;4929862;28;119688;-66
2022/05/06 16:39:46;;;;;;;;;;;;;;;;;;4913653;28;118860;-66
2022/05/06 16:42:16;;;;;;;;;;;;;;;;;;4915921;28;137501;-65
2022/05/06 16:44:42;;;;;;;;;;;;;;;;;;4918798;27;135768;-66
2022/05/06 16:47:09;;;;;;;;;;;;;;;;;;4923966;27;120692;-66
2022/05/06 16:49:38;;;;;;;;;;;;;;;;;;4904893;27;137194;-66
2022/05/06 16:52:05;;;;;;;;;;;;;;;;;;4903422;28;117937;-67
2022/05/06 16:54:31;;;;;;;;;;;;;;;;;;4906191;27;135074;-64
2022/05/06 16:56:57;;;;;;;;;;;;;;;;;;4910455;27;135771;-67
2022/05/06 16:59:24;;;;;;;;;;;;;;;;;;4911542;28;118054;-66
2022/05/06 17:01:50;;;;;;;;;;;;;;;;;;4902319;28;137099;-65
2022/05/06 17:04:16;;;;;;;;;;;;;;;;;;4904825;28;136379;-66
2022/05/06 17:06:43;;;;;;;;;;;;;;;;;;4906965;28;117059;-65
2022/05/06 17:09:09;;;;;;;;;;;;;;;;;;4912063;28;137245;-66
2022/05/06 17:11:35;;;;;;;;;;;;;;;;;;4906912;27;116476;-65
2022/05/06 17:14:03;;;;;;;;;;;;;;;;;;4925712;27;135511;-65
2022/05/06 17:16:29;;;;;;;;;;;;;;;;;;4923441;27;136388;-65
2022/05/06 17:18:57;;;;;;;;;;;;;;;;;;4907443;27;119014;-66
2022/05/06 17:21:23;;;;;;;;;;;;;;;;;;4911916;27;135878;-66
2022/05/06 17:23:49;;;;;;;;;;;;;;;;;;4912082;27;136289;-65
2022/05/06 17:26:16;;;;;;;;;;;;;;;;;;4909563;27;119115;-67
2022/05/06 17:28:42;;;;;;;;;;;;;;;;;;4911394;27;135492;-68